Time;durP1;ratioP1;P1;durP2;ratioP2;P2;SDS_P1;SDS_P2;PMS_P1;PMS_P2;Temp;Humidity;BMP_temperature;BMP_pressure;BME280_temperature;BME280_humidity;BME280_pressure;Samples;Min_cycle;Max_cycle;Signal;HPM_P1;HPM_P2
2022/06/25 03:01:24;;;;;;;1.38;0.90;;;29.30;46.00;;;;;;5456539;23;47133;-58
2022/06/25 03:03:51;;;;;;;1.73;0.90;;;29.30;46.00;;;;;;4892131;28;47341;-56
2022/06/25 03:06:16;;;;;;;1.40;1.00;;;29.30;46.00;;;;;;4911619;28;45329;-56
2022/06/25 03:08:42;;;;;;;0.88;0.73;;;29.30;46.00;;;;;;4931649;28;44915;-53
2022/06/25 03:11:08;;;;;;;1.08;0.80;;;29.30;46.00;;;;;;4943028;28;45227;-56
2022/06/25 03:13:36;;;;;;;1.38;0.95;;;29.30;46.00;;;;;;4948185;28;46238;-57
2022/06/25 03:16:03;;;;;;;0.88;0.73;;;29.30;46.00;;;;;;4942309;28;45284;-56
2022/06/25 03:18:29;;;;;;;0.82;0.82;;;29.30;46.00;;;;;;4943739;28;45228;-56
2022/06/25 03:20:54;;;;;;;1.05;0.70;;;29.20;45.90;;;;;;4943900;28;44832;-53
2022/06/25 03:23:20;;;;;;;1.70;1.02;;;29.30;46.10;;;;;;4951372;28;45990;-56
2022/06/25 03:25:46;;;;;;;1.10;0.70;;;29.20;46.00;;;;;;4946914;28;44960;-58
2022/06/25 03:28:12;;;;;;;0.93;0.68;;;29.20;46.00;;;;;;4929232;28;44936;-56
2022/06/25 03:30:38;;;;;;;1.00;0.90;;;29.20;46.00;;;;;;4941287;28;44969;-56
2022/06/25 03:33:04;;;;;;;1.38;0.90;;;29.20;46.00;;;;;;4944914;28;45070;-55
2022/06/25 03:35:30;;;;;;;1.40;0.90;;;29.20;46.00;;;;;;4947871;28;45069;-55
2022/06/25 03:37:56;;;;;;;0.85;0.73;;;29.20;46.00;;;;;;4946718;28;44696;-53
2022/06/25 03:40:21;;;;;;;2.47;0.85;;;29.20;46.00;;;;;;4946465;28;45005;-55
2022/06/25 03:42:48;;;;;;;0.95;0.80;;;29.20;46.00;;;;;;4928631;28;45557;-57
2022/06/25 03:45:14;;;;;;;1.23;0.90;;;29.20;46.00;;;;;;4948506;28;44880;-55
2022/06/25 03:47:40;;;;;;;0.75;0.70;;;29.20;46.00;;;;;;4948082;28;45053;-53
2022/06/25 03:50:06;;;;;;;1.48;0.68;;;29.20;46.10;;;;;;4948011;28;45152;-53
2022/06/25 03:52:32;;;;;;;1.98;1.00;;;29.20;46.00;;;;;;4948453;28;45756;-54
2022/06/25 03:54:58;;;;;;;0.60;0.60;;;29.20;46.00;;;;;;4932334;28;45206;-54
2022/06/25 03:57:24;;;;;;;0.82;0.70;;;29.20;46.00;;;;;;4931234;28;45326;-54
2022/06/25 03:59:51;;;;;;;0.77;0.70;;;29.20;46.00;;;;;;4949495;28;44774;-56
2022/06/25 04:02:17;;;;;;;2.25;0.77;;;29.20;46.00;;;;;;4949052;28;46252;-56
2022/06/25 04:04:42;;;;;;;1.20;0.90;;;29.20;46.10;;;;;;4950149;28;45571;-53
2022/06/25 04:07:09;;;;;;;0.50;0.50;;;29.20;46.10;;;;;;4949058;28;45043;-55
2022/06/25 04:09:35;;;;;;;0.70;0.70;;;29.20;46.10;;;;;;4950547;28;45075;-54
2022/06/25 04:12:00;;;;;;;1.17;0.93;;;29.20;46.00;;;;;;4946486;28;46092;-56
2022/06/25 04:14:26;;;;;;;0.73;0.73;;;29.20;46.10;;;;;;4950634;28;45158;-56
2022/06/25 04:16:54;;;;;;;1.13;0.75;;;29.20;46.00;;;;;;4946339;28;44991;-58
2022/06/25 04:19:19;;;;;;;0.85;0.68;;;29.20;46.00;;;;;;4947980;28;45054;-53
2022/06/25 04:21:47;;;;;;;0.98;0.77;;;29.20;46.00;;;;;;4948133;28;46128;-54
2022/06/25 04:24:15;;;;;;;0.70;0.70;;;29.20;46.00;;;;;;4951301;28;44713;-56
2022/06/25 04:26:42;;;;;;;0.80;0.80;;;29.20;46.10;;;;;;4950727;28;45231;-58
2022/06/25 04:29:08;;;;;;;0.70;0.70;;;29.20;46.10;;;;;;4946267;28;45015;-55
2022/06/25 04:31:38;;;;;;;1.90;0.70;;;29.20;46.00;;;;;;4944374;28;46492;-56
2022/06/25 04:34:03;;;;;;;0.70;0.70;;;29.20;46.00;;;;;;4948923;28;45052;-57
2022/06/25 04:36:29;;;;;;;1.08;0.75;;;29.20;46.10;;;;;;4949414;28;45191;-57
2022/06/25 04:38:55;;;;;;;1.20;0.70;;;29.10;46.00;;;;;;4951350;28;44987;-56
2022/06/25 04:41:21;;;;;;;1.10;0.70;;;29.10;46.00;;;;;;4945327;28;46124;-57
2022/06/25 04:43:47;;;;;;;0.85;0.70;;;29.10;46.00;;;;;;4944831;28;45501;-54
2022/06/25 04:46:13;;;;;;;0.82;0.80;;;29.10;46.00;;;;;;4931215;28;45240;-57
2022/06/25 04:48:39;;;;;;;0.70;0.70;;;29.10;46.00;;;;;;4951535;28;44861;-58
2022/06/25 04:51:05;;;;;;;0.60;0.60;;;29.10;46.10;;;;;;4948753;28;46019;-57
2022/06/25 04:53:31;;;;;;;1.33;0.80;;;29.10;46.00;;;;;;4928228;28;45719;-56
2022/06/25 04:55:56;;;;;;;0.80;0.80;;;29.10;46.00;;;;;;4946942;28;45270;-56
2022/06/25 04:58:22;;;;;;;0.60;0.50;;;29.10;46.00;;;;;;4947582;28;45345;-57
2022/06/25 05:00:48;;;;;;;1.52;0.90;;;29.10;46.00;;;;;;4948265;28;45473;-55
2022/06/25 05:03:14;;;;;;;0.55;0.52;;;29.10;46.00;;;;;;4946216;28;45004;-54
2022/06/25 05:05:40;;;;;;;1.10;0.73;;;29.10;46.00;;;;;;4950003;28;44995;-56
2022/06/25 05:08:05;;;;;;;1.65;0.82;;;29.10;46.00;;;;;;4933872;28;45047;-56
2022/06/25 05:10:31;;;;;;;0.82;0.70;;;29.10;46.00;;;;;;4930195;28;46071;-55
2022/06/25 05:13:12;;;;;;;1.17;0.80;;;29.10;46.00;;;;;;4947738;28;45215;-55
2022/06/25 05:15:42;;;;;;;1.65;0.82;;;29.10;46.00;;;;;;4946206;28;45056;-57
2022/06/25 05:18:08;;;;;;;0.93;0.60;;;29.10;46.10;;;;;;4951326;28;45055;-56
2022/06/25 05:20:37;;;;;;;0.73;0.63;;;29.10;46.00;;;;;;4947314;28;45398;-56
2022/06/25 05:23:03;;;;;;;1.45;0.90;;;29.10;46.00;;;;;;4949262;28;45324;-56
2022/06/25 05:25:29;;;;;;;0.77;0.60;;;29.10;46.70;;;;;;4948971;28;45323;-57
2022/06/25 05:27:55;;;;;;;0.80;0.70;;;29.10;46.00;;;;;;4950027;28;45191;-55
2022/06/25 05:30:21;;;;;;;0.70;0.60;;;29.10;46.10;;;;;;4944557;28;45961;-56
2022/06/25 05:32:47;;;;;;;0.82;0.60;;;29.10;46.10;;;;;;4929297;28;45011;-53
2022/06/25 05:35:12;;;;;;;0.60;0.60;;;29.10;46.10;;;;;;4947063;28;44754;-56
2022/06/25 05:37:38;;;;;;;0.98;0.60;;;29.00;46.10;;;;;;4946270;28;46033;-56
2022/06/25 05:40:05;;;;;;;1.15;0.70;;;29.00;46.10;;;;;;4949425;28;46167;-55
2022/06/25 05:42:30;;;;;;;0.85;0.63;;;29.00;46.10;;;;;;4927107;28;45528;-57
2022/06/25 05:44:56;;;;;;;1.17;0.70;;;29.00;46.10;;;;;;4947652;28;44961;-53
2022/06/25 05:47:22;;;;;;;1.02;0.60;;;29.00;46.10;;;;;;4945006;28;45930;-53
2022/06/25 05:49:47;;;;;;;0.75;0.70;;;29.00;46.10;;;;;;4948386;28;46010;-54
2022/06/25 05:52:14;;;;;;;0.70;0.70;;;29.00;46.10;;;;;;4943602;28;45115;-57
2022/06/25 05:54:40;;;;;;;0.52;0.50;;;29.00;46.00;;;;;;4948300;28;45684;-54
2022/06/25 05:57:07;;;;;;;1.05;0.82;;;29.00;46.10;;;;;;4944061;28;45235;-56
2022/06/25 05:59:33;;;;;;;0.65;0.60;;;29.00;46.10;;;;;;4949060;28;46405;-57
2022/06/25 06:01:59;;;;;;;0.90;0.63;;;29.00;46.10;;;;;;4945769;28;45227;-56
2022/06/25 06:04:25;;;;;;;0.73;0.73;;;29.00;46.20;;;;;;4946755;28;44942;-57
2022/06/25 06:06:51;;;;;;;1.15;0.90;;;29.00;46.10;;;;;;4944231;28;45203;-59
2022/06/25 06:09:17;;;;;;;0.57;0.57;;;29.00;46.10;;;;;;4947349;28;46286;-56
2022/06/25 06:11:43;;;;;;;0.77;0.70;;;29.00;46.20;;;;;;4946166;28;45229;-58
2022/06/25 06:14:09;;;;;;;0.90;0.70;;;29.00;46.20;;;;;;4947336;28;45606;-55
2022/06/25 06:16:34;;;;;;;0.55;0.52;;;29.00;46.10;;;;;;4945373;28;45193;-55
2022/06/25 06:19:00;;;;;;;0.70;0.70;;;29.00;46.10;;;;;;4947645;28;46132;-55
2022/06/25 06:21:26;;;;;;;1.33;0.95;;;29.00;46.10;;;;;;4946674;28;45156;-56
2022/06/25 06:23:52;;;;;;;0.80;0.80;;;29.00;46.10;;;;;;4944693;28;45132;-54
2022/06/25 06:26:18;;;;;;;1.15;0.52;;;29.00;46.10;;;;;;4946333;28;45174;-56
2022/06/25 06:28:43;;;;;;;0.70;0.60;;;29.00;46.10;;;;;;4948405;28;45856;-56
2022/06/25 06:31:09;;;;;;;0.77;0.60;;;29.00;46.10;;;;;;4944591;28;45057;-55
2022/06/25 06:33:35;;;;;;;0.82;0.70;;;29.00;46.10;;;;;;4944442;28;45017;-53
2022/06/25 06:36:02;;;;;;;0.60;0.60;;;29.00;46.10;;;;;;4947436;28;45143;-55
2022/06/25 06:38:27;;;;;;;1.25;0.68;;;29.00;46.00;;;;;;4945300;28;46291;-54
2022/06/25 06:40:53;;;;;;;0.70;0.57;;;29.00;46.00;;;;;;4945414;28;45188;-56
2022/06/25 06:43:19;;;;;;;1.17;0.82;;;29.10;45.90;;;;;;4941334;28;45140;-55
2022/06/25 06:45:45;;;;;;;0.70;0.70;;;29.10;45.80;;;;;;4944779;28;44898;-59
2022/06/25 06:48:10;;;;;;;0.68;0.63;;;29.20;45.90;;;;;;4944562;28;46121;-56
2022/06/25 06:50:36;;;;;;;1.13;0.80;;;29.20;45.80;;;;;;4946988;28;45084;-55
2022/06/25 06:53:02;;;;;;;0.88;0.70;;;29.20;45.70;;;;;;4950053;28;45998;-54
2022/06/25 06:55:28;;;;;;;1.15;0.70;;;29.20;45.60;;;;;;4941569;28;45302;-55
2022/06/25 06:57:53;;;;;;;0.70;0.70;;;29.20;45.60;;;;;;4945018;28;46091;-54
2022/06/25 07:00:19;;;;;;;0.70;0.50;;;29.20;45.60;;;;;;4930637;28;45152;-53
2022/06/25 07:02:45;;;;;;;1.00;0.60;;;29.30;45.60;;;;;;4944853;28;44981;-57
2022/06/25 07:05:11;;;;;;;0.70;0.60;;;29.30;45.50;;;;;;4946857;28;45077;-55
2022/06/25 07:07:36;;;;;;;0.52;0.52;;;29.30;45.50;;;;;;4944353;28;46429;-55
2022/06/25 07:10:03;;;;;;;0.77;0.60;;;29.30;45.40;;;;;;4943861;28;45474;-58
2022/06/25 07:12:29;;;;;;;0.60;0.60;;;29.30;45.40;;;;;;4943696;28;44977;-56
2022/06/25 07:14:55;;;;;;;0.85;0.60;;;29.40;45.40;;;;;;4946864;28;45276;-57
2022/06/25 07:17:20;;;;;;;1.13;0.63;;;29.40;45.40;;;;;;4922929;28;45702;-56
2022/06/25 07:19:46;;;;;;;0.82;0.57;;;29.40;45.40;;;;;;4944794;28;45129;-55
2022/06/25 07:22:12;;;;;;;0.60;0.50;;;29.40;45.50;;;;;;4945969;28;45057;-57
2022/06/25 07:24:38;;;;;;;2.70;0.55;;;29.40;45.50;;;;;;4948780;28;44720;-55
2022/06/25 07:27:03;;;;;;;1.42;0.88;;;29.40;45.30;;;;;;4944859;28;46190;-58
2022/06/25 07:29:29;;;;;;;4.00;0.68;;;29.40;45.00;;;;;;4943733;28;45083;-56
2022/06/25 07:31:56;;;;;;;0.52;0.43;;;29.40;45.00;;;;;;4944890;28;45269;-56
2022/06/25 07:34:22;;;;;;;0.82;0.70;;;29.30;44.90;;;;;;4946079;28;45007;-55
2022/06/25 07:36:48;;;;;;;4.38;0.82;;;29.30;44.80;;;;;;4942442;28;45293;-55
2022/06/25 07:39:14;;;;;;;2.35;0.70;;;29.20;44.90;;;;;;4945034;28;45315;-55
2022/06/25 07:41:40;;;;;;;3.30;0.63;;;29.20;44.90;;;;;;4943663;28;45607;-55
2022/06/25 07:44:05;;;;;;;0.73;0.50;;;29.10;44.60;;;;;;4942637;28;45188;-56
2022/06/25 07:46:31;;;;;;;0.85;0.65;;;29.00;44.60;;;;;;4926518;28;46068;-57
2022/06/25 07:48:57;;;;;;;1.00;0.40;;;29.00;44.70;;;;;;4947429;28;45166;-57
2022/06/25 07:54:07;;;;;;;2.78;0.63;;;29.00;44.80;;;;;;4944928;28;45081;-55
2022/06/25 07:56:33;;;;;;;1.52;0.63;;;29.00;44.70;;;;;;4943866;28;45931;-56
2022/06/25 07:58:59;;;;;;;1.35;0.70;;;29.00;44.60;;;;;;4946448;28;45593;-53
2022/06/25 08:01:25;;;;;;;0.88;0.68;;;29.00;44.60;;;;;;4940315;28;44997;-56
2022/06/25 08:03:51;;;;;;;2.17;0.50;;;29.00;44.50;;;;;;4947640;28;45239;-56
2022/06/25 08:06:17;;;;;;;0.52;0.45;;;28.90;44.40;;;;;;4945789;28;46082;-57
2022/06/25 08:08:42;;;;;;;1.60;0.60;;;28.90;44.40;;;;;;4947952;28;44977;-55
2022/06/25 08:11:08;;;;;;;1.80;0.60;;;28.90;44.40;;;;;;4944688;28;45013;-57
2022/06/25 08:13:35;;;;;;;0.50;0.40;;;28.90;44.50;;;;;;4945358;28;45231;-57
2022/06/25 08:16:01;;;;;;;1.27;0.63;;;28.90;44.40;;;;;;4944474;28;46370;-55
2022/06/25 08:18:27;;;;;;;1.60;0.63;;;28.90;44.40;;;;;;4947153;28;45101;-53
2022/06/25 08:20:52;;;;;;;0.40;0.40;;;28.90;44.40;;;;;;4945901;28;45107;-56
2022/06/25 08:23:18;;;;;;;1.25;0.60;;;28.90;44.40;;;;;;4928826;28;45017;-56
2022/06/25 08:25:44;;;;;;;1.13;0.52;;;28.80;44.30;;;;;;4942919;28;46183;-55
2022/06/25 08:28:10;;;;;;;1.20;0.30;;;28.80;44.30;;;;;;4944486;28;45018;-58
2022/06/25 08:30:35;;;;;;;0.30;0.30;;;28.80;44.40;;;;;;4945300;28;45047;-58
2022/06/25 08:33:01;;;;;;;0.40;0.30;;;28.80;44.40;;;;;;4951400;28;45221;-55
2022/06/25 08:35:27;;;;;;;0.40;0.40;;;28.80;44.40;;;;;;4947787;28;46296;-57
2022/06/25 08:37:53;;;;;;;1.60;0.50;;;28.70;44.40;;;;;;4945788;28;45339;-57
2022/06/25 08:40:19;;;;;;;0.75;0.55;;;28.70;44.40;;;;;;4955980;28;44865;-55
2022/06/25 08:42:47;;;;;;;1.25;0.40;;;28.70;44.40;;;;;;4956078;28;45232;-55
2022/06/25 08:45:13;;;;;;;0.70;0.45;;;28.80;44.40;;;;;;4955907;28;46159;-53
2022/06/25 08:47:49;;;;;;;1.10;0.60;;;28.80;44.40;;;;;;4951745;28;44847;-57
2022/06/25 08:50:16;;;;;;;0.85;0.50;;;28.90;44.30;;;;;;4954021;28;45032;-53
2022/06/25 08:52:46;;;;;;;2.65;0.40;;;28.90;44.40;;;;;;4953362;28;44921;-55
2022/06/25 08:55:36;;;;;;;1.77;0.50;;;28.90;44.30;;;;;;4953785;28;45985;-52
2022/06/25 08:58:02;;;;;;;1.92;0.40;;;28.90;44.10;;;;;;4936325;28;45213;-54
2022/06/25 09:00:29;;;;;;;0.93;0.32;;;28.90;44.30;;;;;;4953360;28;44996;-55
2022/06/25 09:02:54;;;;;;;0.85;0.70;;;28.90;44.10;;;;;;4954000;28;44971;-53
2022/06/25 09:05:31;;;;;;;3.53;0.60;;;28.80;43.90;;;;;;4943291;28;46523;-55
2022/06/25 09:07:57;;;;;;;1.42;0.60;;;28.70;44.20;;;;;;4952583;28;44897;-54
2022/06/25 09:10:24;;;;;;;1.33;0.65;;;28.70;43.70;;;;;;4954390;28;45212;-57
2022/06/25 09:12:54;;;;;;;1.77;0.73;;;28.60;43.60;;;;;;4953244;28;45017;-55
2022/06/25 09:15:21;;;;;;;1.27;0.65;;;28.70;43.50;;;;;;4955469;28;46037;-57
2022/06/25 09:17:51;;;;;;;0.70;0.50;;;28.70;43.50;;;;;;4954838;28;44894;-53
2022/06/25 09:20:20;;;;;;;1.25;0.50;;;28.70;43.30;;;;;;4957057;28;45264;-54
2022/06/25 09:23:00;;;;;;;1.45;0.65;;;28.70;43.20;;;;;;4955470;28;45059;-55
2022/06/25 09:25:27;;;;;;;3.25;0.60;;;28.70;42.90;;;;;;4951485;28;46070;-53
2022/06/25 09:27:53;;;;;;;0.77;0.50;;;28.80;43.30;;;;;;4952654;28;44915;-52
2022/06/25 09:30:20;;;;;;;0.60;0.50;;;28.80;43.10;;;;;;4950727;28;45343;-53
2022/06/25 09:33:02;;;;;;;0.43;0.30;;;28.80;43.10;;;;;;4951325;28;45220;-53
2022/06/25 09:35:27;;;;;;;0.77;0.60;;;28.90;42.80;;;;;;4933340;28;46563;-55
2022/06/25 09:37:53;;;;;;;1.45;0.40;;;28.80;43.00;;;;;;4950152;28;45246;-52
2022/06/25 09:40:18;;;;;;;2.17;0.40;;;28.90;43.00;;;;;;4941221;28;44805;-57
2022/06/25 09:42:45;;;;;;;0.38;0.38;;;28.80;42.90;;;;;;4919154;28;45736;-53
2022/06/25 09:45:12;;;;;;;0.85;0.50;;;28.80;43.00;;;;;;4935856;28;46014;-55
2022/06/25 09:47:44;;;;;;;1.73;0.50;;;28.80;43.10;;;;;;4940322;28;45174;-53
2022/06/25 09:50:11;;;;;;;2.15;0.50;;;28.80;42.90;;;;;;4962111;28;44720;-52
2022/06/25 09:52:38;;;;;;;0.45;0.40;;;28.80;43.10;;;;;;4951475;28;44915;-52
2022/06/25 09:55:04;;;;;;;0.45;0.30;;;28.80;42.90;;;;;;4953481;28;46167;-53
2022/06/25 09:57:31;;;;;;;0.40;0.40;;;28.80;42.90;;;;;;4951722;28;44987;-54
2022/06/25 09:59:58;;;;;;;0.65;0.60;;;28.80;42.90;;;;;;4953398;28;44950;-51
2022/06/25 10:02:27;;;;;;;1.55;0.77;;;28.70;42.80;;;;;;4951760;28;44691;-53
2022/06/25 10:04:54;;;;;;;1.38;0.95;;;28.80;42.60;;;;;;4938444;28;46085;-55
2022/06/25 10:07:59;;;;;;;2.75;1.13;;;28.70;42.50;;;;;;4935640;28;44796;-54
2022/06/25 10:10:05;;;;;;;1.23;0.73;;;28.70;42.50;;;;;;4940766;28;45282;-55
2022/06/25 10:12:31;;;;;;;3.03;1.15;;;28.70;42.30;;;;;;4919424;28;45130;-56
2022/06/25 10:14:56;;;;;;;2.47;1.13;;;28.60;42.20;;;;;;4937788;28;45864;-53
2022/06/25 10:17:22;;;;;;;2.78;0.85;;;28.60;42.20;;;;;;4917668;28;45230;-54
2022/06/25 10:19:47;;;;;;;1.50;1.02;;;28.60;42.30;;;;;;4949443;28;45213;-53
2022/06/25 10:22:13;;;;;;;2.40;1.20;;;28.60;42.20;;;;;;4955985;28;45047;-56
2022/06/25 10:24:38;;;;;;;2.65;0.80;;;28.70;42.20;;;;;;4938651;28;45897;-52
2022/06/25 10:27:04;;;;;;;4.40;0.93;;;28.70;42.20;;;;;;4933807;28;45052;-51
2022/06/25 10:29:31;;;;;;;1.20;0.70;;;28.70;42.20;;;;;;4941394;28;45035;-55
2022/06/25 10:32:14;;;;;;;1.77;0.80;;;28.80;41.90;;;;;;4952489;28;45170;-51
2022/06/25 10:34:52;;;;;;;1.93;0.60;;;28.80;41.70;;;;;;4957588;28;46165;-55
2022/06/25 10:37:19;;;;;;;1.65;0.80;;;28.90;41.40;;;;;;4951512;28;44793;-54
2022/06/25 10:39:54;;;;;;;1.08;0.60;;;28.90;41.60;;;;;;4898688;28;45252;-54
2022/06/25 10:45:08;;;;;;;0.65;0.40;;;28.90;41.30;;;;;;4953700;28;45282;-52
2022/06/25 10:47:39;;;;;;;0.32;0.30;;;28.90;41.30;;;;;;4934980;28;45432;-51
2022/06/25 10:50:20;;;;;;;2.17;0.52;;;28.90;41.10;;;;;;4954027;28;45033;-54
2022/06/25 10:53:01;;;;;;;1.40;0.40;;;28.90;40.80;;;;;;4951240;28;45210;-57
2022/06/25 10:55:40;;;;;;;0.98;0.40;;;28.90;41.00;;;;;;4948715;28;46045;-54
2022/06/25 10:58:22;;;;;;;0.60;0.40;;;28.90;41.30;;;;;;4948561;28;45190;-54
2022/06/25 11:01:03;;;;;;;1.85;0.50;;;28.90;41.00;;;;;;4947035;28;45718;-54
2022/06/25 11:03:32;;;;;;;0.38;0.38;;;29.00;41.10;;;;;;4951688;28;44999;-52
2022/06/25 11:05:59;;;;;;;0.70;0.50;;;29.00;41.30;;;;;;4949065;28;45898;-54
2022/06/25 11:08:37;;;;;;;0.95;0.50;;;29.00;41.10;;;;;;4949995;28;44708;-57
2022/06/25 11:11:03;;;;;;;1.73;0.38;;;29.00;40.60;;;;;;4946570;28;45114;-56
2022/06/25 11:13:29;;;;;;;0.73;0.35;;;29.00;41.00;;;;;;4950418;28;44996;-56
2022/06/25 11:15:55;;;;;;;0.70;0.30;;;29.00;41.00;;;;;;4953005;28;46158;-54
2022/06/25 11:18:20;;;;;;;0.85;0.40;;;29.00;41.00;;;;;;4949364;28;44940;-54
2022/06/25 11:20:46;;;;;;;0.43;0.40;;;29.00;40.90;;;;;;4951749;28;45267;-52
2022/06/25 11:23:15;;;;;;;2.30;0.80;;;29.00;40.80;;;;;;4947757;28;45233;-52
2022/06/25 11:28:47;;;;;;;1.08;0.40;;;29.00;40.50;;;;;;4949050;28;45026;-56
2022/06/25 11:31:20;;;;;;;1.17;0.40;;;29.00;40.80;;;;;;4928672;28;45860;-53
2022/06/25 11:33:47;;;;;;;1.38;0.43;;;29.00;40.80;;;;;;4948575;28;46543;-55
2022/06/25 11:36:13;;;;;;;0.32;0.32;;;29.10;40.80;;;;;;4946274;28;46508;-54
2022/06/25 11:38:40;;;;;;;0.93;0.50;;;29.10;40.60;;;;;;4917402;28;45202;-54
2022/06/25 11:41:06;;;;;;;0.68;0.40;;;29.10;40.40;;;;;;4943553;28;45465;-53
2022/06/25 11:43:31;;;;;;;0.68;0.40;;;29.20;40.20;;;;;;4927913;28;45165;-57
2022/06/25 11:45:58;;;;;;;0.95;0.45;;;29.20;39.90;;;;;;4945553;28;45499;-56
2022/06/25 11:48:28;;;;;;;0.30;0.30;;;29.20;39.90;;;;;;4944332;28;45052;-55
2022/06/25 11:50:59;;;;;;;1.00;0.30;;;29.20;39.70;;;;;;4943666;28;45248;-57
2022/06/25 11:53:24;;;;;;;0.80;0.50;;;29.30;39.60;;;;;;4946380;28;45546;-53
2022/06/25 11:56:00;;;;;;;0.50;0.30;;;29.30;39.70;;;;;;4928441;28;46487;-54
2022/06/25 11:58:31;;;;;;;2.67;0.45;;;29.30;39.40;;;;;;4942257;28;45938;-54
2022/06/25 12:00:57;;;;;;;0.55;0.30;;;29.30;39.40;;;;;;4941751;28;45006;-53
2022/06/25 12:03:24;;;;;;;2.20;0.52;;;29.40;39.70;;;;;;4946906;28;45118;-57
2022/06/25 12:05:51;;;;;;;0.40;0.30;;;29.40;39.70;;;;;;4948466;28;45305;-56
2022/06/25 12:08:16;;;;;;;0.35;0.32;;;29.40;39.70;;;;;;4929722;28;44912;-53
2022/06/25 12:10:42;;;;;;;0.40;0.38;;;29.40;39.60;;;;;;4928575;28;45171;-56
2022/06/25 12:13:08;;;;;;;2.05;0.40;;;29.50;39.50;;;;;;4948541;28;45106;-56
2022/06/25 12:15:35;;;;;;;0.68;0.30;;;29.40;39.50;;;;;;4930623;28;45678;-56
2022/06/25 12:18:04;;;;;;;2.05;0.30;;;29.40;39.50;;;;;;4932728;28;45654;-53
2022/06/25 12:20:30;;;;;;;0.63;0.30;;;29.40;39.50;;;;;;4946294;28;46139;-55
2022/06/25 12:22:56;;;;;;;0.52;0.40;;;29.40;39.60;;;;;;4951358;28;44866;-56
2022/06/25 12:25:30;;;;;;;2.20;0.45;;;29.50;39.60;;;;;;4949724;28;46961;-55
2022/06/25 12:27:55;;;;;;;1.77;0.40;;;29.50;39.20;;;;;;4952840;28;44769;-54
2022/06/25 12:30:21;;;;;;;0.30;0.30;;;29.50;39.50;;;;;;4948790;28;45157;-56
2022/06/25 12:32:47;;;;;;;0.40;0.40;;;29.50;39.50;;;;;;4945577;28;45097;-54
2022/06/25 12:35:20;;;;;;;0.28;0.28;;;29.50;39.50;;;;;;4947262;28;45993;-58
2022/06/25 12:38:11;;;;;;;0.30;0.25;;;29.50;39.20;;;;;;4947147;28;45132;-54
2022/06/25 12:40:41;;;;;;;0.57;0.30;;;29.50;39.20;;;;;;4948514;28;45351;-54
2022/06/25 12:43:09;;;;;;;1.00;0.30;;;29.60;39.50;;;;;;4948284;28;46133;-53
2022/06/25 12:45:35;;;;;;;0.65;0.32;;;29.60;39.60;;;;;;4948512;28;46086;-55
2022/06/25 12:48:01;;;;;;;0.50;0.40;;;29.60;40.10;;;;;;4945748;28;45691;-52
2022/06/25 12:50:28;;;;;;;0.85;0.50;;;29.60;39.50;;;;;;4947247;28;45066;-52
2022/06/25 12:52:54;;;;;;;0.47;0.35;;;29.70;39.50;;;;;;4945521;28;45082;-53
2022/06/25 12:55:24;;;;;;;0.88;0.45;;;29.70;39.40;;;;;;4928185;28;46296;-57
2022/06/25 12:57:50;;;;;;;0.88;0.35;;;29.70;39.40;;;;;;4946849;28;45097;-56
2022/06/25 13:00:23;;;;;;;0.40;0.40;;;29.70;39.50;;;;;;4947678;28;45301;-54
2022/06/25 13:02:49;;;;;;;0.57;0.30;;;29.70;39.50;;;;;;4944381;28;45766;-54
2022/06/25 13:05:18;;;;;;;0.57;0.45;;;29.70;39.60;;;;;;4948146;28;46141;-55
2022/06/25 13:07:44;;;;;;;1.95;0.35;;;29.70;39.50;;;;;;4945135;28;44929;-57
2022/06/25 13:10:10;;;;;;;0.57;0.40;;;29.80;39.50;;;;;;4945858;28;44841;-56
2022/06/25 13:12:36;;;;;;;0.35;0.30;;;29.80;39.60;;;;;;4950615;28;45018;-56
2022/06/25 13:15:02;;;;;;;1.27;0.38;;;29.80;39.70;;;;;;4953409;28;46056;-57
2022/06/25 13:17:28;;;;;;;0.50;0.32;;;29.80;39.50;;;;;;4954834;28;45076;-57
2022/06/25 13:19:54;;;;;;;0.43;0.30;;;29.80;39.40;;;;;;4956113;28;44710;-55
2022/06/25 13:22:19;;;;;;;0.90;0.28;;;29.80;39.40;;;;;;4950942;28;45092;-57
2022/06/25 13:24:45;;;;;;;0.82;0.25;;;29.90;39.30;;;;;;4953204;28;46105;-55
2022/06/25 13:27:10;;;;;;;0.52;0.40;;;30.00;39.10;;;;;;4956463;28;45140;-53
2022/06/25 13:29:36;;;;;;;0.80;0.30;;;30.00;38.80;;;;;;4952404;28;44949;-55
2022/06/25 13:32:03;;;;;;;1.30;0.30;;;30.00;38.60;;;;;;4956561;28;44847;-57
2022/06/25 13:34:29;;;;;;;0.20;0.20;;;30.00;38.60;;;;;;4953918;28;46407;-54
2022/06/25 13:36:55;;;;;;;0.30;0.30;;;30.10;38.50;;;;;;4948832;28;44902;-55
2022/06/25 13:39:20;;;;;;;0.25;0.25;;;30.00;38.30;;;;;;4954135;28;44825;-55
2022/06/25 13:41:46;;;;;;;0.32;0.32;;;30.00;38.50;;;;;;4948104;28;45281;-55
2022/06/25 13:44:12;;;;;;;0.57;0.30;;;30.10;38.40;;;;;;4932244;28;46128;-56
2022/06/25 13:46:39;;;;;;;0.63;0.20;;;30.10;38.40;;;;;;4952450;28;44670;-57
2022/06/25 13:49:04;;;;;;;0.40;0.30;;;30.10;38.30;;;;;;4952298;28;45153;-54
2022/06/25 13:51:30;;;;;;;1.60;0.40;;;30.10;38.30;;;;;;4947743;28;45167;-56
2022/06/25 13:53:56;;;;;;;0.52;0.30;;;30.10;38.30;;;;;;4956210;28;45353;-55
2022/06/25 13:56:21;;;;;;;0.68;0.22;;;30.20;38.20;;;;;;4950187;28;45707;-57
2022/06/25 13:58:47;;;;;;;0.80;0.50;;;30.20;38.10;;;;;;4951279;28;45257;-57
2022/06/25 14:01:13;;;;;;;1.52;0.35;;;30.20;38.00;;;;;;4953569;28;44996;-55
2022/06/25 14:03:38;;;;;;;0.35;0.30;;;30.20;38.50;;;;;;4934522;28;45153;-57
2022/06/25 14:06:04;;;;;;;1.95;0.20;;;30.20;37.90;;;;;;4947874;28;44798;-56
2022/06/25 14:08:30;;;;;;;0.77;0.30;;;30.20;38.00;;;;;;4953922;28;44865;-55
2022/06/25 14:10:56;;;;;;;0.20;0.20;;;30.20;38.00;;;;;;4958721;28;45148;-55
2022/06/25 14:13:22;;;;;;;0.68;0.30;;;30.20;38.10;;;;;;4952056;28;46326;-57
2022/06/25 14:15:48;;;;;;;0.40;0.30;;;30.20;37.70;;;;;;4944106;28;44757;-56
2022/06/25 14:18:13;;;;;;;0.85;0.35;;;30.20;37.70;;;;;;4935558;28;45021;-57
2022/06/25 14:20:39;;;;;;;0.70;0.40;;;30.20;37.70;;;;;;4952680;28;45036;-53
2022/06/25 14:23:04;;;;;;;0.30;0.30;;;30.20;37.70;;;;;;4934247;28;45949;-54
2022/06/25 14:25:30;;;;;;;0.28;0.25;;;30.20;37.60;;;;;;4951070;28;44945;-57
2022/06/25 14:28:00;;;;;;;2.45;0.40;;;30.20;37.60;;;;;;4950549;28;45322;-54
2022/06/25 14:30:26;;;;;;;0.55;0.30;;;30.30;37.40;;;;;;4936607;28;45405;-55
2022/06/25 14:32:53;;;;;;;0.70;0.30;;;30.30;37.50;;;;;;4947795;28;46524;-55
2022/06/25 14:35:18;;;;;;;0.40;0.30;;;30.30;37.60;;;;;;4936152;28;45306;-55
2022/06/25 14:43:13;;;;;;;0.80;0.30;;;30.30;37.20;;;;;;4935965;28;46033;-54
2022/06/25 14:45:38;;;;;;;0.40;0.30;;;30.30;37.00;;;;;;4952873;28;45102;-57
2022/06/25 14:48:04;;;;;;;2.78;0.50;;;30.40;37.00;;;;;;4949327;28;44980;-57
2022/06/25 14:50:30;;;;;;;0.20;0.20;;;30.40;37.00;;;;;;4955487;28;45612;-55
2022/06/25 14:52:56;;;;;;;0.30;0.30;;;30.40;36.80;;;;;;4950538;28;45019;-55
2022/06/25 14:55:21;;;;;;;0.45;0.30;;;30.40;36.80;;;;;;4954278;28;44723;-57
2022/06/25 14:57:47;;;;;;;0.82;0.40;;;30.40;36.60;;;;;;4950024;28;44761;-56
2022/06/25 15:00:13;;;;;;;2.20;0.20;;;30.40;36.80;;;;;;4931775;28;45627;-54
2022/06/25 15:02:38;;;;;;;1.27;0.30;;;30.30;36.80;;;;;;4952966;28;44942;-57
2022/06/25 15:05:05;;;;;;;0.73;0.40;;;30.40;36.80;;;;;;4938225;28;45055;-56
2022/06/25 15:07:30;;;;;;;0.50;0.30;;;30.40;36.80;;;;;;4951930;28;44872;-55
2022/06/25 15:10:00;;;;;;;0.25;0.25;;;30.40;36.60;;;;;;4950559;28;45039;-57
2022/06/25 15:12:28;;;;;;;1.42;0.40;;;30.40;36.60;;;;;;4934430;28;46165;-52
2022/06/25 15:14:55;;;;;;;0.50;0.25;;;30.40;36.70;;;;;;4948679;28;46293;-54
2022/06/25 15:17:20;;;;;;;0.60;0.30;;;30.40;36.50;;;;;;4952612;28;45076;-56
2022/06/25 15:19:46;;;;;;;2.95;0.40;;;30.40;36.70;;;;;;4950419;28;44965;-56
2022/06/25 15:22:12;;;;;;;0.65;0.30;;;30.40;36.90;;;;;;4951296;28;46159;-54
2022/06/25 15:24:38;;;;;;;0.63;0.30;;;30.40;36.80;;;;;;4953487;28;45236;-57
2022/06/25 15:27:05;;;;;;;0.40;0.30;;;30.40;36.80;;;;;;4947826;28;46121;-54
2022/06/25 15:29:30;;;;;;;0.60;0.30;;;30.40;36.90;;;;;;4947542;28;45028;-58
2022/06/25 15:31:56;;;;;;;0.57;0.20;;;30.40;36.60;;;;;;4951546;28;45918;-58
2022/06/25 15:34:21;;;;;;;0.47;0.30;;;30.40;36.70;;;;;;4935245;28;45063;-56
2022/06/25 15:36:49;;;;;;;2.10;0.40;;;30.40;36.60;;;;;;4954579;28;45128;-55
2022/06/25 15:39:15;;;;;;;1.33;0.40;;;30.40;36.60;;;;;;4952180;28;44794;-55
2022/06/25 15:41:40;;;;;;;0.47;0.20;;;30.40;36.50;;;;;;4947273;28;45067;-55
2022/06/25 15:44:06;;;;;;;0.52;0.28;;;30.40;36.40;;;;;;4949127;28;44941;-56
2022/06/25 15:46:33;;;;;;;2.47;0.30;;;30.40;36.30;;;;;;4947461;28;45037;-55
2022/06/25 15:48:59;;;;;;;0.50;0.30;;;30.40;36.10;;;;;;4955245;28;45317;-57
2022/06/25 15:51:25;;;;;;;1.20;0.30;;;30.40;36.20;;;;;;4943499;28;45191;-54
2022/06/25 15:53:50;;;;;;;0.70;0.20;;;30.40;36.20;;;;;;4948942;28;45014;-56
2022/06/25 15:56:16;;;;;;;0.30;0.20;;;30.40;36.20;;;;;;4948301;28;44998;-55
2022/06/25 16:01:25;;;;;;;3.40;0.38;;;30.40;36.20;;;;;;4946435;28;46330;-57
2022/06/25 16:03:51;;;;;;;0.68;0.38;;;30.40;36.40;;;;;;4949875;28;45101;-58